createdAt,value
2022-11-23T00:02:20.660Z,1.72
2022-11-23T00:05:11.359Z,1.83
2022-11-23T00:07:57.934Z,1.81
2022-11-23T00:10:44.674Z,1.75
2022-11-23T00:13:31.024Z,1.77
2022-11-23T00:16:22.893Z,1.74
2022-11-23T00:19:09.726Z,1.76
2022-11-23T00:21:56.024Z,1.76
2022-11-23T00:24:42.354Z,1.73
2022-11-23T00:27:29.020Z,1.79
2022-11-23T00:30:15.542Z,1.80
2022-11-23T00:33:02.529Z,2.02
2022-11-23T02:47:05.562Z,1.15
2022-11-23T02:49:52.349Z,0.88
2022-11-23T02:52:38.878Z,0.97
2022-11-23T02:55:25.441Z,0.89
2022-11-23T02:58:12.339Z,0.89
2022-11-23T03:00:58.959Z,0.88
2022-11-23T03:03:45.566Z,0.94
2022-11-23T03:06:32.018Z,0.98
2022-11-23T03:09:18.813Z,1.03
2022-11-23T03:12:06.133Z,0.98
2022-11-23T03:14:52.717Z,0.87
2022-11-23T03:17:40.200Z,1.14
2022-11-23T03:20:29.496Z,1.13
2022-11-23T03:23:16.181Z,1.12
2022-11-23T03:26:08.540Z,1.01
2022-11-23T03:29:05.408Z,1.06
2022-11-23T03:31:55.233Z,0.91
2022-11-23T03:34:42.047Z,0.97
2022-11-23T03:37:28.650Z,0.91
2022-11-23T03:40:15.444Z,1.01
2022-11-23T03:43:27.937Z,1.06
2022-11-23T03:46:14.117Z,1.07
2022-11-23T03:49:00.445Z,1.08
2022-11-23T03:51:48.064Z,1.31
2022-11-23T03:54:34.722Z,1.25
2022-11-23T03:57:21.137Z,1.44
2022-11-23T04:00:09.053Z,1.40
2022-11-23T04:02:59.408Z,1.51
2022-11-23T04:06:06.128Z,1.61
2022-11-23T04:09:13.256Z,1.35
2022-11-23T04:12:21.056Z,1.33
2022-11-23T04:15:07.793Z,1.34
2022-11-23T04:17:55.251Z,1.30
2022-11-23T04:20:41.578Z,1.19
2022-11-23T04:23:27.840Z,1.03
2022-11-23T04:26:14.229Z,0.71
2022-11-23T04:29:03.619Z,1.11
2022-11-23T04:31:52.693Z,1.13
2022-11-23T04:34:39.683Z,1.14
2022-11-23T04:37:27.512Z,1.33
2022-11-23T04:40:14.422Z,1.31
2022-11-23T04:43:13.741Z,1.51
2022-11-23T04:46:00.192Z,1.55
2022-11-23T04:48:49.793Z,1.32
2022-11-23T04:51:37.525Z,1.75
2022-11-23T04:54:24.178Z,1.99
2022-11-23T04:57:15.890Z,2.01
2022-11-23T05:00:05.090Z,2.03
2022-11-23T05:02:54.586Z,2.20
2022-11-23T05:05:45.203Z,1.99
2022-11-23T05:08:32.154Z,2.22
2022-11-23T05:11:39.996Z,2.05
2022-11-23T05:14:28.323Z,2.06
2022-11-23T05:17:14.860Z,2.21
2022-11-23T05:20:02.132Z,2.20
2022-11-23T05:22:51.801Z,2.12
2022-11-23T05:25:41.613Z,2.39
2022-11-23T05:28:40.170Z,2.42
2022-11-23T05:31:29.069Z,2.59
2022-11-23T05:34:16.384Z,2.63
2022-11-23T05:37:06.187Z,2.78
2022-11-23T05:39:52.735Z,2.65
2022-11-23T05:42:40.369Z,2.71
2022-11-23T05:45:35.228Z,2.80
2022-11-23T05:48:22.709Z,2.73
2022-11-23T05:51:17.207Z,2.78
2022-11-23T05:54:05.204Z,2.88
2022-11-23T05:57:01.889Z,2.82
2022-11-23T05:59:56.081Z,2.98
2022-11-23T06:02:48.018Z,2.87
2022-11-23T06:05:34.395Z,2.83
2022-11-23T06:08:20.990Z,3.02
2022-11-23T06:11:08.160Z,3.01
2022-11-23T06:13:54.824Z,3.08
2022-11-23T06:16:41.546Z,2.98
2022-11-23T06:19:53.969Z,3.07
2022-11-23T06:22:40.572Z,3.06
2022-11-23T06:25:28.067Z,3.07
2022-11-23T06:28:19.267Z,3.33
2022-11-23T06:31:07.869Z,3.13
2022-11-23T06:33:54.619Z,3.14
2022-11-23T06:36:43.124Z,3.16
2022-11-23T06:39:30.119Z,3.13
2022-11-23T06:45:28.438Z,3.10
2022-11-23T06:48:18.681Z,3.18
2022-11-23T06:51:07.568Z,3.47
2022-11-23T06:53:56.890Z,3.48
2022-11-23T06:56:44.005Z,3.45
2022-11-23T06:59:31.150Z,3.70
2022-11-23T07:02:18.033Z,3.58
2022-11-23T07:05:05.136Z,3.60
2022-11-23T07:07:51.482Z,3.68
2022-11-23T07:10:44.520Z,3.66
2022-11-23T07:13:35.435Z,3.80
2022-11-23T07:16:22.408Z,3.82
2022-11-23T07:19:10.921Z,3.83
2022-11-23T07:21:57.252Z,3.91
2022-11-23T07:24:46.721Z,3.87
2022-11-23T07:27:33.228Z,4.14
2022-11-23T07:30:25.203Z,4.21
2022-11-23T07:33:14.601Z,4.23
2022-11-23T07:36:02.787Z,4.13
2022-11-23T07:38:50.734Z,4.42
2022-11-23T07:41:39.848Z,4.26
2022-11-23T07:44:36.941Z,4.38
2022-11-23T07:47:25.049Z,4.32
2022-11-23T07:50:13.137Z,4.52
2022-11-23T07:53:02.095Z,4.71
2022-11-23T07:55:48.585Z,4.93
2022-11-23T07:58:34.940Z,4.86
2022-11-23T08:01:21.408Z,4.89
2022-11-23T08:04:07.621Z,4.87
2022-11-23T11:16:59.548Z,8.55
2022-11-23T11:19:45.952Z,8.68
2022-11-23T11:22:34.979Z,8.73
2022-11-23T11:25:30.607Z,8.54
2022-11-23T11:28:42.448Z,8.76
2022-11-23T11:31:57.765Z,8.78
2022-11-23T11:34:55.681Z,8.92
2022-11-23T11:37:44.753Z,8.98
2022-11-23T11:40:45.183Z,9.02
2022-11-23T11:43:43.809Z,9.03
2022-11-23T11:46:37.914Z,8.98
2022-11-23T11:49:31.032Z,8.94
2022-11-23T11:52:23.565Z,8.95
2022-11-23T11:55:24.901Z,9.06
2022-11-23T11:58:15.831Z,9.10
2022-11-23T12:01:32.632Z,9.14
2022-11-23T12:04:39.712Z,8.99
2022-11-23T12:07:30.411Z,9.25
2022-11-23T12:10:27.933Z,9.21
2022-11-23T12:13:21.400Z,9.27
2022-11-23T12:16:20.194Z,9.31
2022-11-23T12:19:14.143Z,9.23
2022-11-23T12:22:26.557Z,9.52
2022-11-23T12:25:24.983Z,9.60
2022-11-23T12:28:43.282Z,9.66
2022-11-23T12:31:49.030Z,9.83
2022-11-23T12:35:17.220Z,9.99
2022-11-23T12:38:16.721Z,10.09
2022-11-23T12:41:29.324Z,10.01
2022-11-23T12:44:49.846Z,10.15
2022-11-23T12:47:52.570Z,10.26
2022-11-23T12:51:29.558Z,10.31
2022-11-23T12:54:25.653Z,10.29
2022-11-23T12:57:35.171Z,10.24
2022-11-23T13:00:23.191Z,10.16
2022-11-23T13:03:34.508Z,9.98
2022-11-23T13:07:20.716Z,9.99
2022-11-23T13:10:33.123Z,10.01
2022-11-23T13:13:38.160Z,10.00
2022-11-23T13:16:39.917Z,9.92
2022-11-23T13:19:44.980Z,9.89
2022-11-23T13:22:32.877Z,9.79
2022-11-23T13:25:27.625Z,9.88
2022-11-23T13:28:29.206Z,9.85
2022-11-23T13:31:16.133Z,9.93
2022-11-23T13:34:23.900Z,9.88
2022-11-23T13:37:12.672Z,9.84
2022-11-23T13:40:03.828Z,9.74
2022-11-23T13:42:52.235Z,9.50
2022-11-23T13:45:39.031Z,9.52
2022-11-23T13:48:55.561Z,9.49
2022-11-23T13:51:35.464Z,9.31
2022-11-23T13:54:24.800Z,9.22
2022-11-23T13:57:13.282Z,8.91
2022-11-23T14:00:37.471Z,8.90
2022-11-23T14:03:42.831Z,8.67
2022-11-23T14:06:54.396Z,8.22
2022-11-23T14:10:00.085Z,8.41
2022-11-23T14:13:05.628Z,8.30
2022-11-23T14:16:00.278Z,8.24
2022-11-23T14:18:54.091Z,8.44
2022-11-23T14:22:07.805Z,8.39
2022-11-23T14:25:03.427Z,8.30
2022-11-23T14:28:38.425Z,8.28
2022-11-23T14:31:46.181Z,8.10
2022-11-23T14:34:54.509Z,8.03
2022-11-23T14:37:59.154Z,7.89
2022-11-23T14:41:01.898Z,7.89
2022-11-23T14:43:49.731Z,7.87
2022-11-23T14:46:36.512Z,7.76
2022-11-23T14:49:23.092Z,7.49
2022-11-23T14:52:19.344Z,7.33
2022-11-23T14:55:06.422Z,7.06
2022-11-23T14:57:58.947Z,7.11
2022-11-23T15:00:45.747Z,6.96
2022-11-23T15:03:50.077Z,6.88
2022-11-23T15:06:45.709Z,6.53
2022-11-23T15:10:00.723Z,6.37
2022-11-23T15:12:49.321Z,6.28
2022-11-23T15:15:38.033Z,6.27
2022-11-23T15:18:38.661Z,6.17
2022-11-23T15:21:28.168Z,6.09
2022-11-23T15:24:23.323Z,5.85
2022-11-23T15:27:22.832Z,5.86
2022-11-23T15:30:16.333Z,5.84
2022-11-23T15:33:08.906Z,5.74
2022-11-23T15:35:55.668Z,5.49
2022-11-23T15:38:42.090Z,5.55
2022-11-23T15:41:30.183Z,5.42
2022-11-23T15:44:24.785Z,5.55
2022-11-23T15:47:18.117Z,5.38
2022-11-23T15:50:09.509Z,5.57
2022-11-23T15:52:58.544Z,5.64
2022-11-23T15:55:45.479Z,5.70
2022-11-23T15:58:33.824Z,5.63
2022-11-23T16:01:21.985Z,5.43
2022-11-23T16:04:50.411Z,5.64
2022-11-23T16:07:51.020Z,5.63
2022-11-23T16:10:54.072Z,5.61
2022-11-23T16:13:40.211Z,5.70
2022-11-23T16:16:27.210Z,5.67
2022-11-23T16:19:31.813Z,5.80
2022-11-23T16:22:24.152Z,5.71
2022-11-23T16:25:24.753Z,5.81
2022-11-23T16:28:25.636Z,5.54
2022-11-23T16:31:51.525Z,5.98
2022-11-23T16:34:38.043Z,5.92
2022-11-23T16:37:26.280Z,5.92
2022-11-23T16:40:13.936Z,6.02
2022-11-23T16:43:00.577Z,5.97
2022-11-23T16:45:51.128Z,5.88
2022-11-23T16:48:42.280Z,6.10
2022-11-23T16:51:28.801Z,6.04
2022-11-23T16:54:18.049Z,6.07
2022-11-23T16:57:07.308Z,5.88
2022-11-23T16:59:54.019Z,6.09
2022-11-23T17:02:40.659Z,6.14
2022-11-23T17:05:27.216Z,6.15
2022-11-23T17:08:19.782Z,6.18
2022-11-23T17:11:16.877Z,5.91
2022-11-23T17:14:04.362Z,6.00
2022-11-23T17:16:50.954Z,6.05
2022-11-23T17:19:37.625Z,6.05
2022-11-23T17:22:23.889Z,5.87
2022-11-23T17:25:14.922Z,5.94
2022-11-23T17:28:03.191Z,5.80
2022-11-23T17:30:50.130Z,5.92
2022-11-23T17:33:36.281Z,5.96
2022-11-23T17:36:23.348Z,5.72
2022-11-23T17:39:19.144Z,5.74
2022-11-23T17:42:05.498Z,5.84
2022-11-23T17:44:51.721Z,5.76
2022-11-23T17:47:38.534Z,6.03
2022-11-23T17:50:28.612Z,6.09
2022-11-23T17:53:14.970Z,5.97
2022-11-23T17:56:01.246Z,5.82
2022-11-23T17:58:48.065Z,5.90
2022-11-23T18:01:34.768Z,5.69
2022-11-23T18:04:21.284Z,5.77
2022-11-23T18:07:10.345Z,5.78
2022-11-23T18:09:56.798Z,5.68
2022-11-23T18:12:44.566Z,5.75
2022-11-23T18:15:31.002Z,5.70
2022-11-23T18:18:18.033Z,5.71
2022-11-23T18:21:07.117Z,5.61
2022-11-23T18:23:53.305Z,5.75
2022-11-23T18:26:39.643Z,6.02
2022-11-23T18:29:26.098Z,6.10
2022-11-23T18:32:12.379Z,5.90
2022-11-23T18:34:58.642Z,5.85
2022-11-23T18:37:45.078Z,5.77
2022-11-23T18:40:31.340Z,5.90
2022-11-23T18:43:17.533Z,5.70
2022-11-23T18:46:05.879Z,5.69
2022-11-23T18:48:53.437Z,5.74
2022-11-23T18:51:39.683Z,5.79
2022-11-23T18:54:25.938Z,5.57
2022-11-23T18:57:16.378Z,5.79
2022-11-23T19:00:05.880Z,5.70
2022-11-23T19:02:56.003Z,5.87
2022-11-23T19:05:42.396Z,5.72
2022-11-23T20:55:39.053Z,7.78
2022-11-23T20:58:25.640Z,7.67
2022-11-23T21:01:14.474Z,7.67
2022-11-23T21:04:00.836Z,7.72
2022-11-23T21:06:47.037Z,7.66
2022-11-23T21:09:33.769Z,7.61
2022-11-23T21:12:39.106Z,7.68
2022-11-23T21:15:25.469Z,7.59
2022-11-23T21:18:12.295Z,7.80
2022-11-23T21:20:58.878Z,7.80
2022-11-23T21:23:48.199Z,7.70
2022-11-23T21:26:37.464Z,7.77
2022-11-23T21:29:23.990Z,8.02
2022-11-23T21:32:11.483Z,7.97
2022-11-23T21:34:57.591Z,8.07
2022-11-23T21:37:44.199Z,8.06
2022-11-23T21:40:30.717Z,7.97
2022-11-23T21:43:16.949Z,7.98
2022-11-23T21:46:05.801Z,7.76
2022-11-23T21:48:57.758Z,7.90
2022-11-23T21:51:45.527Z,7.89
2022-11-23T21:54:32.260Z,7.73
2022-11-23T21:57:18.726Z,7.77
2022-11-23T22:00:05.480Z,7.79
2022-11-23T22:02:58.448Z,7.81
2022-11-23T22:05:55.878Z,7.54
2022-11-23T22:08:47.148Z,7.70
2022-11-23T22:11:35.681Z,7.88
2022-11-23T22:14:22.527Z,7.79
2022-11-23T22:17:08.980Z,7.69
2022-11-23T22:19:55.243Z,7.56
2022-11-23T22:22:41.516Z,7.66
2022-11-23T22:25:27.892Z,7.73
2022-11-23T22:28:14.197Z,7.55
2022-11-23T22:31:00.373Z,7.58
2022-11-23T22:33:46.887Z,7.34
2022-11-23T22:36:33.663Z,7.36
2022-11-23T22:39:19.948Z,7.24
2022-11-23T22:42:06.289Z,7.15
2022-11-23T22:44:52.599Z,7.37
2022-11-23T22:47:38.946Z,7.11
2022-11-23T22:50:25.225Z,7.20
2022-11-23T22:53:11.634Z,7.16
2022-11-23T22:56:03.092Z,7.17
2022-11-23T22:58:49.448Z,7.10
2022-11-23T23:01:35.909Z,7.08
2022-11-23T23:04:22.180Z,6.89
2022-11-23T23:07:08.517Z,6.76
2022-11-23T23:09:55.186Z,6.93
2022-11-23T23:12:41.432Z,6.85
2022-11-23T23:15:27.984Z,7.01
2022-11-23T23:18:16.166Z,7.14
2022-11-23T23:21:02.604Z,7.17
2022-11-23T23:23:50.783Z,7.27
2022-11-23T23:26:37.292Z,7.22
2022-11-23T23:29:23.580Z,7.33
2022-11-23T23:32:09.971Z,7.09
2022-11-23T23:34:56.645Z,7.17
2022-11-23T23:37:42.848Z,7.41
2022-11-23T23:40:29.292Z,7.25
2022-11-23T23:43:15.672Z,7.22
2022-11-23T23:46:04.661Z,7.18
2022-11-23T23:48:51.464Z,7.04
2022-11-23T23:51:37.960Z,7.10
2022-11-23T23:54:25.081Z,6.79
2022-11-23T23:57:11.319Z,6.52
2022-11-23T23:59:57.651Z,6.39
